createdAt,value
2022-08-24T00:02:35.281Z,24.29
2022-08-24T00:05:21.508Z,24.60
2022-08-24T00:08:05.595Z,24.27
2022-08-24T00:10:49.607Z,24.17
2022-08-24T00:13:37.273Z,24.27
2022-08-24T00:16:23.680Z,24.18
2022-08-24T00:19:07.999Z,24.39
2022-08-24T00:21:52.285Z,24.22
2022-08-24T00:24:36.520Z,24.35
2022-08-24T00:27:20.570Z,24.43
2022-08-24T00:30:08.731Z,24.60
2022-08-24T00:32:54.323Z,24.73
2022-08-24T00:35:38.402Z,24.70
2022-08-24T00:38:22.664Z,24.36
2022-08-24T00:41:11.854Z,24.40
2022-08-24T00:43:58.478Z,24.53
2022-08-24T00:46:51.528Z,24.35
2022-08-24T00:49:40.601Z,24.22
2022-08-24T00:52:29.680Z,24.31
2022-08-24T00:55:19.152Z,24.58
2022-08-24T00:58:07.881Z,24.40
2022-08-24T01:00:58.147Z,24.55
2022-08-24T01:03:46.400Z,24.26
2022-08-24T01:06:32.109Z,24.09
2022-08-24T01:09:16.256Z,24.49
2022-08-24T01:12:01.717Z,24.61
2022-08-24T01:14:46.041Z,24.59
2022-08-24T01:17:47.638Z,24.44
2022-08-24T01:20:33.513Z,24.46
2022-08-24T01:23:36.624Z,24.27
2022-08-24T01:26:23.689Z,24.73
2022-08-24T01:29:11.072Z,24.55
2022-08-24T01:31:55.552Z,24.87
2022-08-24T01:34:39.670Z,24.69
2022-08-24T01:37:23.993Z,24.95
2022-08-24T01:40:10.628Z,24.69
2022-08-24T01:42:55.437Z,24.47
2022-08-24T01:45:39.807Z,24.72
2022-08-24T01:48:24.621Z,24.66
2022-08-24T01:51:10.613Z,24.83
2022-08-24T01:53:54.673Z,24.61
2022-08-24T01:56:40.451Z,24.59
2022-08-24T01:59:25.620Z,24.60
2022-08-24T02:02:13.360Z,24.62
2022-08-24T02:04:57.589Z,24.20
2022-08-24T02:07:41.794Z,24.49
2022-08-24T02:10:26.490Z,24.13
2022-08-24T02:13:11.980Z,24.28
2022-08-24T02:15:56.262Z,24.10
2022-08-24T02:18:41.454Z,24.15
2022-08-24T02:21:26.392Z,24.06
2022-08-24T02:24:10.864Z,24.21
2022-08-24T02:26:55.976Z,24.27
2022-08-24T02:29:42.569Z,24.00
2022-08-24T02:32:26.623Z,24.21
2022-08-24T02:35:11.360Z,24.11
2022-08-24T02:37:55.472Z,24.17
2022-08-24T02:40:39.680Z,24.05
2022-08-24T02:43:24.492Z,24.06
2022-08-24T02:46:13.899Z,24.22
2022-08-24T02:49:10.399Z,24.07
2022-08-24T02:51:57.982Z,24.25
2022-08-24T02:54:42.172Z,24.05
2022-08-24T02:57:26.335Z,24.28
2022-08-24T03:00:13.494Z,24.08
2022-08-24T03:03:10.364Z,24.20
2022-08-24T03:05:54.488Z,24.09
2022-08-24T03:08:42.554Z,24.32
2022-08-24T03:11:32.868Z,24.22
2022-08-24T03:14:17.433Z,24.38
2022-08-24T03:17:01.565Z,24.24
2022-08-24T03:19:47.599Z,24.05
2022-08-24T03:22:31.755Z,24.23
2022-08-24T03:25:18.422Z,23.93
2022-08-24T03:28:02.824Z,24.29
2022-08-24T03:30:52.834Z,24.21
2022-08-24T03:33:37.119Z,24.15
2022-08-24T03:36:23.091Z,24.05
2022-08-24T03:39:07.485Z,23.99
2022-08-24T03:41:51.641Z,24.02
2022-08-24T03:44:35.815Z,24.26
2022-08-24T03:47:20.342Z,24.07
2022-08-24T03:50:05.225Z,24.21
2022-08-24T03:52:51.326Z,24.14
2022-08-24T03:55:35.335Z,24.25
2022-08-24T03:58:19.553Z,24.10
2022-08-24T04:01:03.980Z,23.73
2022-08-24T04:03:50.036Z,23.81
2022-08-24T04:06:34.072Z,23.78
2022-08-24T04:09:20.177Z,23.95
2022-08-24T04:12:05.695Z,23.81
2022-08-24T04:14:52.765Z,23.94
2022-08-24T04:17:36.886Z,24.15
2022-08-24T04:20:23.130Z,23.93
2022-08-24T04:23:09.693Z,23.87
2022-08-24T04:26:04.280Z,24.12
2022-08-24T04:28:49.000Z,24.17
2022-08-24T04:31:33.957Z,23.95
2022-08-24T04:34:19.058Z,23.98
2022-08-24T04:37:03.311Z,24.08
2022-08-24T04:39:47.588Z,24.32
2022-08-24T04:42:33.607Z,24.50
2022-08-24T04:45:18.750Z,24.40
2022-08-24T04:48:02.933Z,24.57
2022-08-24T04:50:47.562Z,24.69
2022-08-24T04:53:31.896Z,24.61
2022-08-24T04:56:17.961Z,24.68
2022-08-24T04:59:06.270Z,24.83
2022-08-24T05:01:52.474Z,24.67
2022-08-24T05:04:37.666Z,24.87
2022-08-24T05:07:21.857Z,24.51
2022-08-24T05:10:11.055Z,24.41
2022-08-24T05:12:55.247Z,24.76
2022-08-24T05:15:45.782Z,24.46
2022-08-24T05:18:31.996Z,24.55
2022-08-24T05:21:18.564Z,24.57
2022-08-24T05:24:04.104Z,24.60
2022-08-24T05:26:49.914Z,24.48
2022-08-24T05:29:34.987Z,24.48
2022-08-24T05:32:21.114Z,24.33
2022-08-24T05:35:07.866Z,24.36
2022-08-24T05:37:52.313Z,24.47
2022-08-24T05:40:39.009Z,24.42
2022-08-24T05:43:24.617Z,24.49
2022-08-24T05:46:08.807Z,24.95
2022-08-24T05:48:55.083Z,25.04
2022-08-24T05:51:49.927Z,24.94
2022-08-24T05:54:34.036Z,25.18
2022-08-24T05:57:21.026Z,25.05
2022-08-24T06:00:16.939Z,25.83
2022-08-24T06:03:03.915Z,26.03
2022-08-24T06:05:53.233Z,26.15
2022-08-24T06:08:41.253Z,26.29
2022-08-24T06:11:30.725Z,26.47
2022-08-24T06:14:19.686Z,26.67
2022-08-24T06:17:11.470Z,26.38
2022-08-24T06:19:57.165Z,26.42
2022-08-24T06:22:44.597Z,27.33
2022-08-24T06:25:46.754Z,27.60
2022-08-24T06:28:32.405Z,28.13
2022-08-24T06:31:17.312Z,27.63
2022-08-24T06:34:01.457Z,27.75
2022-08-24T06:36:46.566Z,27.33
2022-08-24T06:39:32.724Z,27.45
2022-08-24T06:42:18.809Z,27.42
2022-08-24T06:45:03.208Z,27.68
2022-08-24T06:47:48.327Z,27.72
2022-08-24T06:50:34.241Z,27.56
2022-08-24T06:53:18.995Z,27.67
2022-08-24T06:56:06.570Z,27.49
2022-08-24T06:58:51.803Z,27.53
2022-08-24T07:01:36.959Z,27.99
2022-08-24T07:04:24.071Z,28.50
2022-08-24T07:07:18.681Z,28.54
2022-08-24T07:10:03.381Z,28.05
2022-08-24T07:12:49.918Z,28.08
2022-08-24T07:15:34.484Z,28.05
2022-08-24T07:18:30.320Z,28.22
2022-08-24T07:21:19.722Z,27.77
2022-08-24T07:24:07.213Z,27.47
2022-08-24T07:26:54.290Z,27.97
2022-08-24T07:29:56.491Z,28.08
2022-08-24T07:32:44.700Z,28.51
2022-08-24T07:35:31.245Z,28.59
2022-08-24T07:38:15.438Z,28.98
2022-08-24T07:41:33.218Z,29.14
2022-08-24T07:44:05.665Z,29.26
2022-08-24T07:46:52.659Z,29.75
2022-08-24T07:49:39.706Z,29.88
2022-08-24T07:52:24.215Z,30.08
2022-08-24T07:55:09.040Z,30.33
2022-08-24T07:57:53.276Z,30.20
2022-08-24T08:00:37.793Z,30.89
2022-08-24T08:03:26.610Z,31.54
2022-08-24T08:06:15.983Z,30.87
2022-08-24T08:09:00.936Z,30.95
2022-08-24T08:11:47.004Z,30.73
2022-08-24T08:14:31.064Z,29.92
2022-08-24T08:17:15.217Z,29.71
2022-08-24T08:20:01.649Z,29.80
2022-08-24T08:23:04.466Z,30.10
2022-08-24T08:25:52.533Z,29.54
2022-08-24T08:28:43.838Z,29.02
2022-08-24T08:31:27.936Z,29.57
2022-08-24T08:34:13.250Z,30.04
2022-08-24T08:36:59.462Z,29.94
2022-08-24T08:39:44.276Z,29.97
2022-08-24T08:42:49.294Z,30.00
2022-08-24T08:45:49.074Z,29.73
2022-08-24T08:49:16.736Z,30.15
2022-08-24T08:52:34.464Z,29.89
2022-08-24T08:55:30.153Z,29.71
2022-08-24T08:58:36.854Z,29.77
2022-08-24T09:01:33.283Z,29.63
2022-08-24T09:04:49.000Z,29.86
2022-08-24T09:07:46.217Z,29.94
2022-08-24T09:10:55.919Z,30.07
2022-08-24T09:14:11.640Z,30.30
2022-08-24T09:17:18.616Z,30.89
2022-08-24T09:20:20.373Z,31.01
2022-08-24T09:23:18.353Z,31.30
2022-08-24T09:26:06.379Z,31.97
2022-08-24T09:29:00.894Z,31.68
2022-08-24T09:32:04.813Z,31.72
2022-08-24T09:34:57.300Z,31.43
2022-08-24T09:38:01.048Z,31.96
2022-08-24T09:41:10.569Z,32.27
2022-08-24T09:44:21.779Z,32.73
2022-08-24T09:47:28.798Z,32.13
2022-08-24T09:50:54.758Z,32.32
2022-08-24T09:54:27.341Z,32.14
2022-08-24T09:57:50.196Z,33.44
2022-08-24T10:00:42.890Z,33.54
2022-08-24T10:03:42.289Z,33.59
2022-08-24T10:06:35.502Z,32.93
2022-08-24T10:09:50.447Z,31.93
2022-08-24T10:12:52.897Z,31.99
2022-08-24T10:15:48.367Z,31.46
2022-08-24T10:18:46.873Z,31.41
2022-08-24T10:21:45.798Z,31.15
2022-08-24T10:24:53.855Z,31.14
2022-08-24T10:27:54.312Z,31.61
2022-08-24T10:31:03.014Z,31.22
2022-08-24T10:34:00.005Z,31.22
2022-08-24T10:37:07.497Z,31.45
2022-08-24T10:40:25.552Z,31.70
2022-08-24T10:43:44.381Z,31.56
2022-08-24T10:46:47.005Z,32.36
2022-08-24T10:50:09.354Z,32.75
2022-08-24T10:53:15.160Z,32.75
2022-08-24T10:56:08.108Z,32.58
2022-08-24T10:59:03.933Z,32.94
2022-08-24T11:02:12.811Z,32.62
2022-08-24T11:04:59.068Z,32.44
2022-08-24T11:08:05.279Z,32.36
2022-08-24T11:11:08.104Z,31.79
2022-08-24T11:14:00.579Z,31.85
2022-08-24T11:16:47.121Z,32.46
2022-08-24T11:19:33.701Z,32.41
2022-08-24T11:22:36.970Z,32.85
2022-08-24T11:25:27.605Z,32.87
2022-08-24T11:28:22.082Z,33.49
2022-08-24T11:31:12.763Z,34.05
2022-08-24T11:34:03.731Z,34.32
2022-08-24T11:36:48.025Z,32.83
2022-08-24T11:39:35.458Z,33.19
2022-08-24T11:42:31.528Z,32.94
2022-08-24T11:45:22.629Z,33.80
2022-08-24T11:48:25.704Z,33.13
2022-08-24T11:51:21.955Z,32.88
2022-08-24T11:54:19.498Z,33.38
2022-08-24T11:57:12.673Z,34.12
2022-08-24T12:00:03.652Z,33.33
2022-08-24T12:03:03.329Z,33.78
2022-08-24T12:05:54.486Z,33.44
2022-08-24T12:08:46.049Z,34.17
2022-08-24T12:11:37.765Z,34.34
2022-08-24T12:14:30.611Z,34.17
2022-08-24T12:17:20.550Z,34.52
2022-08-24T12:20:10.945Z,34.00
2022-08-24T12:23:03.542Z,34.11
2022-08-24T12:26:04.900Z,33.92
2022-08-24T12:28:54.435Z,33.96
2022-08-24T12:31:43.885Z,34.11
2022-08-24T12:34:38.627Z,33.94
2022-08-24T12:37:29.759Z,34.44
2022-08-24T12:40:25.181Z,34.46
2022-08-24T12:43:12.804Z,34.21
2022-08-24T12:46:00.050Z,34.37
2022-08-24T12:48:51.014Z,34.71
2022-08-24T12:52:00.169Z,35.08
2022-08-24T12:55:02.321Z,34.92
2022-08-24T12:57:55.286Z,34.74
2022-08-24T13:00:45.663Z,35.39
2022-08-24T13:03:35.982Z,34.20
2022-08-24T13:06:21.967Z,34.68
2022-08-24T13:09:10.463Z,34.65
2022-08-24T13:11:56.166Z,34.71
2022-08-24T13:14:50.982Z,34.32
2022-08-24T13:17:42.466Z,33.92
2022-08-24T13:20:30.157Z,33.03
2022-08-24T13:23:19.061Z,33.25
2022-08-24T13:26:23.886Z,32.89
2022-08-24T13:29:09.405Z,33.39
2022-08-24T13:31:57.833Z,34.01
2022-08-24T13:34:46.038Z,34.51
2022-08-24T13:37:30.575Z,34.45
2022-08-24T13:40:27.899Z,34.29
2022-08-24T13:43:17.637Z,33.40
2022-08-24T13:46:13.999Z,34.29
2022-08-24T13:49:03.699Z,33.73
2022-08-24T13:51:55.474Z,34.46
2022-08-24T13:54:48.828Z,34.82
2022-08-24T13:57:43.100Z,34.53
2022-08-24T14:00:40.080Z,34.72
2022-08-24T14:03:52.436Z,34.69
2022-08-24T14:06:49.155Z,34.47
2022-08-24T14:09:42.376Z,34.24
2022-08-24T14:12:45.636Z,34.53
2022-08-24T14:15:47.692Z,34.86
2022-08-24T14:18:43.900Z,34.39
2022-08-24T14:21:41.500Z,34.23
2022-08-24T14:24:32.617Z,34.94
2022-08-24T14:27:42.130Z,34.72
2022-08-24T14:30:43.014Z,35.17
2022-08-24T14:33:33.257Z,35.21
2022-08-24T14:36:21.743Z,35.05
2022-08-24T14:39:20.110Z,33.98
2022-08-24T14:42:17.108Z,34.04
2022-08-24T14:45:06.929Z,33.30
2022-08-24T14:48:02.781Z,33.19
2022-08-24T14:50:56.260Z,33.96
2022-08-24T14:54:00.985Z,33.75
2022-08-24T14:57:01.128Z,33.29
2022-08-24T14:59:56.825Z,33.05
2022-08-24T15:03:11.627Z,33.11
2022-08-24T15:06:26.385Z,33.12
2022-08-24T15:09:18.501Z,32.79
2022-08-24T15:12:15.595Z,32.79
2022-08-24T15:15:06.471Z,32.44
2022-08-24T15:18:00.141Z,32.59
2022-08-24T15:21:00.064Z,32.20
2022-08-24T15:23:57.973Z,32.53
2022-08-24T15:26:56.021Z,32.14
2022-08-24T15:29:53.788Z,32.68
2022-08-24T15:32:45.153Z,32.29
2022-08-24T15:35:32.779Z,32.30
2022-08-24T15:38:23.708Z,32.23
2022-08-24T15:41:13.368Z,31.61
2022-08-24T15:44:01.276Z,31.51
2022-08-24T15:46:51.152Z,32.03
2022-08-24T15:49:39.675Z,31.67
2022-08-24T15:52:44.764Z,31.81
2022-08-24T15:55:34.023Z,31.92
2022-08-24T15:58:33.288Z,31.45
2022-08-24T16:01:41.056Z,31.54
2022-08-24T16:04:48.086Z,31.04
2022-08-24T16:07:36.037Z,30.84
2022-08-24T16:10:31.620Z,31.22
2022-08-24T16:13:25.397Z,31.04
2022-08-24T16:16:15.391Z,30.64
2022-08-24T16:19:02.096Z,29.97
2022-08-24T16:22:00.053Z,30.01
2022-08-24T16:24:45.259Z,30.19
2022-08-24T16:28:00.617Z,30.47
2022-08-24T16:30:51.569Z,30.15
2022-08-24T16:33:44.414Z,29.76
2022-08-24T16:36:29.435Z,29.79
2022-08-24T16:39:15.001Z,30.13
2022-08-24T16:42:03.677Z,29.93
2022-08-24T16:44:47.929Z,29.62
2022-08-24T16:47:32.100Z,29.87
2022-08-24T16:50:19.824Z,29.56
2022-08-24T16:53:04.518Z,29.50
2022-08-24T16:55:50.310Z,29.01
2022-08-24T16:58:37.234Z,29.13
2022-08-24T17:01:21.712Z,28.88
2022-08-24T17:04:06.251Z,28.55
2022-08-24T17:06:50.831Z,28.71
2022-08-24T17:09:38.025Z,28.46
2022-08-24T17:12:24.100Z,28.76
2022-08-24T17:15:11.777Z,28.58
2022-08-24T17:18:01.581Z,28.56
2022-08-24T17:20:45.670Z,28.46
2022-08-24T17:23:29.689Z,28.47
2022-08-24T17:26:20.398Z,28.38
2022-08-24T17:29:10.602Z,28.75
2022-08-24T17:31:59.160Z,28.52
2022-08-24T17:34:43.398Z,28.41
2022-08-24T17:37:27.411Z,28.34
2022-08-24T17:40:15.057Z,28.27
2022-08-24T17:42:59.650Z,28.52
2022-08-24T17:45:45.496Z,28.22
2022-08-24T17:48:34.054Z,28.29
2022-08-24T17:51:18.445Z,27.71
2022-08-24T17:54:02.431Z,27.89
2022-08-24T17:56:48.895Z,27.53
2022-08-24T17:59:35.119Z,27.55
2022-08-24T18:02:20.866Z,27.78
2022-08-24T18:05:05.772Z,27.39
2022-08-24T18:07:54.301Z,27.85
2022-08-24T18:10:38.730Z,27.59
2022-08-24T18:13:22.839Z,27.41
2022-08-24T18:16:08.185Z,27.51
2022-08-24T18:18:54.205Z,27.24
2022-08-24T18:21:38.145Z,26.95
2022-08-24T18:24:22.324Z,27.41
2022-08-24T18:27:10.301Z,27.24
2022-08-24T18:29:57.333Z,27.35
2022-08-24T18:32:41.637Z,26.85
2022-08-24T18:35:27.147Z,27.00
2022-08-24T18:38:11.533Z,26.82
2022-08-24T18:40:55.710Z,26.95
2022-08-24T18:43:40.651Z,26.74
2022-08-24T18:46:25.236Z,26.76
2022-08-24T18:49:09.465Z,27.00
2022-08-24T18:51:55.416Z,27.00
2022-08-24T18:54:44.843Z,26.79
2022-08-24T18:57:29.012Z,26.62
2022-08-24T19:00:14.490Z,26.72
2022-08-24T19:03:03.133Z,26.97
2022-08-24T19:05:47.819Z,26.69
2022-08-24T19:08:33.382Z,26.34
2022-08-24T19:11:20.660Z,26.32
2022-08-24T19:14:04.805Z,26.57
2022-08-24T19:16:48.946Z,26.43
2022-08-24T19:19:36.928Z,26.18
2022-08-24T19:22:22.042Z,25.82
2022-08-24T19:25:08.944Z,26.24
2022-08-24T19:27:55.354Z,25.89
2022-08-24T19:30:40.259Z,25.99
2022-08-24T19:33:33.269Z,25.81
2022-08-24T19:36:17.379Z,25.82
2022-08-24T19:39:01.534Z,25.59
2022-08-24T19:41:49.532Z,25.65
2022-08-24T19:44:51.873Z,25.58
2022-08-24T19:47:36.374Z,25.53
2022-08-24T19:50:21.197Z,25.99
2022-08-24T19:53:06.190Z,26.24
2022-08-24T19:55:50.573Z,26.27
2022-08-24T19:58:44.571Z,26.31
2022-08-24T20:01:31.508Z,26.01
2022-08-24T20:04:15.695Z,26.06
2022-08-24T20:06:59.822Z,25.81
2022-08-24T20:09:43.835Z,25.99
2022-08-24T20:12:28.192Z,25.93
2022-08-24T20:15:14.504Z,26.10
2022-08-24T20:17:59.485Z,25.83
2022-08-24T20:20:44.331Z,25.91
2022-08-24T20:23:31.046Z,25.50
2022-08-24T20:26:15.481Z,24.93
2022-08-24T20:28:59.997Z,24.73
2022-08-24T20:31:46.962Z,24.81
2022-08-24T20:34:35.093Z,24.66
2022-08-24T20:37:23.459Z,24.71
2022-08-24T20:40:08.786Z,24.67
2022-08-24T20:42:54.381Z,24.58
2022-08-24T20:45:38.551Z,24.76
2022-08-24T20:48:28.708Z,24.68
2022-08-24T20:51:12.827Z,24.19
2022-08-24T20:53:57.084Z,24.42
2022-08-24T20:56:41.346Z,24.54
2022-08-24T20:59:25.976Z,24.32
2022-08-24T21:02:10.125Z,24.10
2022-08-24T21:04:56.317Z,23.67
2022-08-24T21:07:46.122Z,23.80
2022-08-24T21:10:30.173Z,23.81
2022-08-24T21:13:14.500Z,23.91
2022-08-24T21:15:58.632Z,24.05
2022-08-24T21:18:43.198Z,23.80
2022-08-24T21:21:28.929Z,24.07
2022-08-24T21:24:12.992Z,24.16
2022-08-24T21:26:57.233Z,24.02
2022-08-24T21:29:41.379Z,23.89
2022-08-24T21:32:45.202Z,24.13
2022-08-24T21:35:29.508Z,24.42
2022-08-24T21:38:15.407Z,24.39
2022-08-24T21:41:00.681Z,24.32
2022-08-24T21:43:44.936Z,24.32
2022-08-24T21:46:32.688Z,24.19
2022-08-24T21:49:16.694Z,24.22
2022-08-24T21:52:00.689Z,24.32
2022-08-24T21:54:46.389Z,24.37
2022-08-24T21:57:30.591Z,24.12
2022-08-24T22:00:19.335Z,24.59
2022-08-24T22:03:04.149Z,24.53
2022-08-24T22:05:48.472Z,24.48
2022-08-24T22:08:32.636Z,24.68
2022-08-24T22:11:21.006Z,24.64
2022-08-24T22:14:05.618Z,24.59
2022-08-24T22:16:50.013Z,24.13
2022-08-24T22:19:34.116Z,24.21
2022-08-24T22:22:18.180Z,24.47
2022-08-24T22:25:02.476Z,24.29
2022-08-24T22:27:49.891Z,24.58
2022-08-24T22:30:35.049Z,24.27
2022-08-24T22:33:19.610Z,24.30
2022-08-24T22:36:04.153Z,24.33
2022-08-24T22:38:48.412Z,24.00
2022-08-24T22:41:32.805Z,24.07
2022-08-24T22:44:21.617Z,24.19
2022-08-24T22:47:13.227Z,23.76
2022-08-24T22:49:59.220Z,23.69
2022-08-24T22:52:43.271Z,23.34
2022-08-24T22:55:27.575Z,23.57
2022-08-24T22:58:11.620Z,23.60
2022-08-24T23:00:57.368Z,23.74
2022-08-24T23:03:41.584Z,23.65
2022-08-24T23:06:30.501Z,23.92
2022-08-24T23:09:14.829Z,23.92
2022-08-24T23:11:58.959Z,23.95
2022-08-24T23:14:43.643Z,23.90
2022-08-24T23:17:29.152Z,23.61
2022-08-24T23:20:12.613Z,23.56
2022-08-24T23:22:56.934Z,23.71
2022-08-24T23:25:40.983Z,23.64
2022-08-24T23:28:25.091Z,23.40
2022-08-24T23:31:11.552Z,23.58
2022-08-24T23:33:57.489Z,23.25
2022-08-24T23:36:42.601Z,23.14
2022-08-24T23:39:26.837Z,23.32
2022-08-24T23:42:11.631Z,23.46
2022-08-24T23:44:55.809Z,22.92
2022-08-24T23:47:42.152Z,23.37
2022-08-24T23:50:27.871Z,23.36
2022-08-24T23:53:12.038Z,23.01
2022-08-24T23:55:56.284Z,23.07
2022-08-24T23:58:41.020Z,22.97
